Time;durP1;ratioP1;P1;durP2;ratioP2;P2;SDS_P1;SDS_P2;PMS_P1;PMS_P2;Temp;Humidity;BMP_temperature;BMP_pressure;BME280_temperature;BME280_humidity;BME280_pressure;Samples;Min_cycle;Max_cycle;Signal;HPM_P1;HPM_P2
2023/07/12 00:00:31;;;;;;;14.82;9.40;;;;;;;24.39;53.70;95539.03;5153079;27;20034;-80
2023/07/12 00:02:57;;;;;;;15.35;8.15;;;;;;;24.32;53.48;95538.88;5134356;27;20030;-80
2023/07/12 00:05:28;;;;;;;16.25;8.15;;;;;;;24.29;53.61;95520.59;5134053;27;20042;-80
2023/07/12 00:07:57;;;;;;;16.10;8.32;;;;;;;24.37;53.80;95535.91;5134211;27;20065;-80
2023/07/12 00:10:25;;;;;;;17.92;9.00;;;;;;;24.12;53.47;95519.03;5153073;27;20077;-80
2023/07/12 00:12:51;;;;;;;13.52;8.50;;;;;;;24.23;53.18;95532.88;5152811;27;20482;-80
2023/07/12 00:15:21;;;;;;;14.07;7.50;;;;;;;23.99;53.22;95498.59;5152818;27;20126;-80
2023/07/12 00:17:48;;;;;;;15.07;8.23;;;;;;;24.06;53.30;95509.59;5168443;27;20457;-79
2023/07/12 00:20:22;;;;;;;15.38;8.05;;;;;;;23.96;54.15;95525.56;5133806;27;20106;-80
2023/07/12 00:22:47;;;;;;;11.95;7.10;;;;;;;23.72;54.06;95480.53;5152512;27;20035;-80
2023/07/12 00:25:14;;;;;;;13.48;8.18;;;;;;;23.88;54.44;95526.56;5133860;27;20037;-80
2023/07/12 00:27:40;;;;;;;13.77;8.07;;;;;;;23.56;54.81;95494.06;5152908;27;20047;-80
2023/07/12 00:30:20;;;;;;;13.57;7.50;;;;;;;23.87;54.28;95525.00;5133924;27;20106;-80
2023/07/12 00:32:50;;;;;;;13.13;7.38;;;;;;;23.86;53.90;95524.19;5132913;27;20046;-80
2023/07/12 00:35:19;;;;;;;14.68;7.90;;;;;;;23.58;53.64;95467.41;5133926;27;20480;-80
2023/07/12 00:37:45;;;;;;;12.63;7.43;;;;;;;23.75;53.77;95487.94;5133881;27;20047;-80
2023/07/12 00:40:32;;;;;;;18.52;7.72;;;;;;;23.51;53.44;95447.50;5134148;27;20042;-80
2023/07/12 00:43:09;;;;;;;22.45;8.88;;;;;;;23.17;53.15;95392.91;5134268;27;20126;-80
2023/07/12 00:45:35;;;;;;;14.18;7.78;;;;;;;23.43;53.23;95430.25;5149549;27;20083;-80
2023/07/12 00:48:01;;;;;;;11.25;7.38;;;;;;;23.93;53.30;95507.34;5123432;28;20031;-79
2023/07/12 00:50:26;;;;;;;10.70;7.80;;;;;;;23.67;53.58;95475.34;5130395;27;20023;-80
2023/07/12 00:52:53;;;;;;;11.43;8.25;;;;;;;23.43;53.30;95441.09;5152308;27;20031;-80
2023/07/12 00:55:55;;;;;;;15.73;8.15;;;;;;;23.87;53.38;95517.66;5134229;27;20397;-80
2023/07/12 00:58:23;;;;;;;14.27;8.07;;;;;;;23.25;53.32;95426.34;5133919;27;20030;-80
2023/07/12 01:00:50;;;;;;;15.90;7.95;;;;;;;23.48;53.65;95478.75;5146129;27;20039;-79
2023/07/12 01:03:18;;;;;;;14.35;7.15;;;;;;;23.51;53.81;95483.47;5142740;27;20082;-80
2023/07/12 01:05:45;;;;;;;14.45;8.05;;;;;;;23.57;54.05;95489.44;5133767;27;20031;-80
2023/07/12 01:08:16;;;;;;;15.70;7.82;;;;;;;23.67;54.45;95502.44;5133609;27;20027;-80
2023/07/12 01:10:42;;;;;;;19.23;8.13;;;;;;;23.16;54.08;95431.91;5128521;27;20034;-80
2023/07/12 01:13:09;;;;;;;16.17;8.40;;;;;;;23.61;54.50;95509.25;5123805;28;20035;-80
2023/07/12 01:15:36;;;;;;;14.88;7.60;;;;;;;23.20;54.57;95437.38;5149892;27;20031;-80
2023/07/12 01:18:03;;;;;;;17.88;8.02;;;;;;;23.41;54.50;95478.56;5152085;27;20030;-80
2023/07/12 01:20:35;;;;;;;15.45;8.15;;;;;;;23.51;54.73;95502.41;5133757;27;20034;-80
2023/07/12 01:23:02;;;;;;;14.80;7.97;;;;;;;23.27;54.78;95475.47;5151972;27;20396;-80
2023/07/12 01:25:39;;;;;;;14.45;7.55;;;;;;;23.34;54.97;95484.56;5152078;27;20473;-80
2023/07/12 01:28:06;;;;;;;12.65;7.85;;;;;;;23.45;55.29;95503.78;5152399;27;20419;-80
2023/07/12 01:30:32;;;;;;;12.60;8.05;;;;;;;23.44;55.50;95500.28;5152256;27;20038;-80
2023/07/12 01:32:58;;;;;;;10.77;7.55;;;;;;;23.30;55.38;95488.31;5151790;27;20492;-80
2023/07/12 01:35:23;;;;;;;13.65;7.65;;;;;;;23.29;55.29;95498.34;5133363;27;20038;-80
2023/07/12 01:37:49;;;;;;;13.98;8.18;;;;;;;22.95;55.73;95447.56;5152049;27;20035;-80
2023/07/12 01:40:14;;;;;;;13.02;7.90;;;;;;;23.23;55.48;95488.91;5151774;27;20031;-80
2023/07/12 01:42:40;;;;;;;13.75;7.65;;;;;;;23.06;55.55;95468.34;5152943;27;20103;-80
2023/07/12 01:45:06;;;;;;;13.23;7.90;;;;;;;23.37;55.97;95504.72;5156319;27;20083;-80
2023/07/12 01:47:33;;;;;;;16.27;8.25;;;;;;;22.94;55.79;95446.00;5155869;27;20083;-80
2023/07/12 01:49:58;;;;;;;17.35;8.55;;;;;;;22.88;55.74;95445.47;5137158;27;20488;-80
2023/07/12 01:52:24;;;;;;;13.18;7.63;;;;;;;23.31;55.66;95519.66;5136933;27;20023;-80
2023/07/12 01:54:50;;;;;;;17.25;7.93;;;;;;;23.22;56.09;95506.28;5156002;27;20023;-80
2023/07/12 01:57:15;;;;;;;14.43;8.15;;;;;;;22.91;55.86;95455.56;5156353;27;20038;-79
2023/07/12 01:59:41;;;;;;;12.88;7.55;;;;;;;23.25;56.08;95526.44;5156384;27;20030;-78
2023/07/12 02:02:07;;;;;;;11.15;7.78;;;;;;;22.72;55.87;95439.19;5138792;27;20029;-79
2023/07/12 02:04:32;;;;;;;16.13;8.05;;;;;;;23.18;56.09;95496.50;5138892;27;20026;-79
2023/07/12 02:06:58;;;;;;;15.60;8.52;;;;;;;22.83;56.56;95483.56;5138539;27;20541;-78
2023/07/12 02:09:23;;;;;;;12.05;7.75;;;;;;;22.99;56.29;95487.09;5138864;27;20042;-79
2023/07/12 02:11:49;;;;;;;15.25;8.00;;;;;;;23.10;56.48;95509.03;5138491;27;20561;-79
2023/07/12 02:14:14;;;;;;;11.18;7.55;;;;;;;23.13;56.45;95516.44;5156785;27;20059;-79
2023/07/12 02:16:39;;;;;;;17.90;8.00;;;;;;;22.64;56.92;95505.78;5137549;27;20039;-79
2023/07/12 02:19:05;;;;;;;14.95;8.35;;;;;;;22.91;56.83;95533.22;5156619;27;20040;-79
2023/07/12 02:21:30;;;;;;;15.77;8.05;;;;;;;22.90;56.76;95513.50;5137770;27;20425;-79
2023/07/12 02:23:56;;;;;;;12.75;8.45;;;;;;;22.96;56.63;95520.22;5137352;27;20121;-79
2023/07/12 02:26:23;;;;;;;13.18;7.82;;;;;;;22.85;56.62;95497.53;5138041;27;20129;-79
2023/07/12 02:28:48;;;;;;;16.08;8.45;;;;;;;22.78;57.15;95513.53;5172525;27;20513;-79
2023/07/12 02:31:24;;;;;;;14.20;8.77;;;;;;;23.00;57.07;95536.56;5137540;27;20069;-78
2023/07/12 02:33:50;;;;;;;18.95;8.68;;;;;;;23.01;57.07;95548.97;5156439;27;20101;-79
2023/07/12 02:36:17;;;;;;;13.90;8.15;;;;;;;22.77;57.11;95505.78;5137578;27;20035;-79
2023/07/12 02:38:42;;;;;;;15.38;7.90;;;;;;;22.94;57.15;95535.25;5172388;27;20102;-79
2023/07/12 02:41:08;;;;;;;17.77;8.27;;;;;;;22.96;57.39;95533.75;5119937;27;20039;-79
2023/07/12 02:43:34;;;;;;;16.13;8.80;;;;;;;22.89;57.16;95533.56;5156443;27;20110;-79
2023/07/12 02:46:00;;;;;;;17.35;8.95;;;;;;;22.89;57.20;95543.59;5137586;27;20035;-79
2023/07/12 02:48:25;;;;;;;19.27;9.40;;;;;;;22.88;56.53;95552.84;5156071;27;20030;-79
2023/07/12 02:50:51;;;;;;;14.32;8.20;;;;;;;22.82;56.55;95535.25;5137415;27;20045;-79
2023/07/12 02:53:18;;;;;;;18.38;8.55;;;;;;;22.86;56.63;95538.88;5155806;27;20480;-78
2023/07/12 02:55:43;;;;;;;16.13;9.13;;;;;;;23.02;56.48;95569.47;5155451;27;20026;-79
2023/07/12 02:58:09;;;;;;;16.33;8.88;;;;;;;22.93;56.80;95555.31;5137162;27;20087;-79
2023/07/12 03:00:34;;;;;;;18.95;9.30;;;;;;;22.81;56.74;95525.59;5155987;27;20030;-79
2023/07/12 03:03:00;;;;;;;22.92;9.90;;;;;;;22.58;56.90;95503.66;5155590;27;20026;-79
2023/07/12 03:05:25;;;;;;;23.40;9.35;;;;;;;22.89;56.77;95551.69;5171633;27;20480;-79
2023/07/12 03:07:54;;;;;;;21.13;9.27;;;;;;;22.96;56.94;95574.31;5172013;27;20034;-79
2023/07/12 03:10:19;;;;;;;16.02;9.85;;;;;;;22.73;56.89;95532.69;5137009;27;20079;-79
2023/07/12 03:12:44;;;;;;;18.92;9.43;;;;;;;22.75;57.04;95546.66;5137110;27;20083;-79
2023/07/12 03:15:10;;;;;;;22.60;9.85;;;;;;;22.73;57.13;95540.81;5136678;27;20492;-79
2023/07/12 03:17:35;;;;;;;14.90;9.90;;;;;;;22.82;57.36;95559.59;5136722;27;20079;-79
2023/07/12 03:20:01;;;;;;;21.73;9.57;;;;;;;22.65;57.74;95547.91;5155800;27;20397;-79
2023/07/12 03:22:26;;;;;;;19.42;9.20;;;;;;;22.90;57.71;95578.41;5136447;27;20054;-79
2023/07/12 03:24:51;;;;;;;16.17;9.30;;;;;;;22.67;57.68;95551.03;5155525;27;20042;-79
2023/07/12 03:27:17;;;;;;;17.45;9.75;;;;;;;22.48;58.02;95531.94;5155079;27;20467;-79
2023/07/12 03:29:43;;;;;;;18.98;10.05;;;;;;;22.84;58.09;95587.09;5155300;27;20485;-79
2023/07/12 03:32:08;;;;;;;19.70;8.88;;;;;;;22.64;58.28;95556.38;5136565;27;20019;-79
2023/07/12 03:34:34;;;;;;;22.27;9.45;;;;;;;22.74;58.39;95571.34;5136058;27;20053;-78
2023/07/12 03:37:00;;;;;;;16.80;10.68;;;;;;;22.67;58.46;95567.25;5154724;27;20026;-78
2023/07/12 03:39:26;;;;;;;27.23;11.27;;;;;;;22.42;58.39;95527.91;5155080;27;20084;-79
2023/07/12 03:41:52;;;;;;;21.17;10.02;;;;;;;22.49;58.40;95536.22;5155476;27;20041;-79
2023/07/12 03:44:17;;;;;;;28.05;10.73;;;;;;;22.91;58.29;95595.41;5136589;27;20015;-78
2023/07/12 03:46:43;;;;;;;19.95;10.80;;;;;;;22.30;58.19;95498.19;5155350;27;20027;-79
2023/07/12 03:49:08;;;;;;;24.33;10.80;;;;;;;22.61;58.98;95589.47;5135740;27;20034;-78
2023/07/12 03:51:34;;;;;;;15.05;9.93;;;;;;;22.48;58.65;95569.78;5154676;27;20537;-79
2023/07/12 03:53:59;;;;;;;22.02;11.23;;;;;;;22.69;58.75;95583.94;5136046;27;20035;-79
2023/07/12 03:56:25;;;;;;;22.20;11.60;;;;;;;22.49;58.58;95560.56;5136295;27;20417;-79
2023/07/12 03:58:50;;;;;;;16.73;10.63;;;;;;;22.54;58.34;95564.94;5136420;27;20030;-79
2023/07/12 04:01:16;;;;;;;20.02;11.18;;;;;;;22.72;58.55;95601.41;5154900;27;20031;-79
2023/07/12 04:03:41;;;;;;;25.38;11.07;;;;;;;22.89;58.29;95611.97;5154559;27;20030;-79
2023/07/12 04:06:09;;;;;;;25.30;11.48;;;;;;;22.85;57.92;95578.66;5135778;27;20110;-79
2023/07/12 04:08:35;;;;;;;23.65;11.52;;;;;;;23.05;57.79;95607.44;5154466;27;20066;-79
2023/07/12 04:11:02;;;;;;;18.67;9.80;;;;;;;23.11;57.73;95609.94;5135733;27;20035;-79
2023/07/12 04:13:28;;;;;;;21.30;10.98;;;;;;;22.95;57.66;95585.50;5154875;27;20030;-78
2023/07/12 04:15:59;;;;;;;23.60;11.98;;;;;;;23.03;57.38;95585.38;5135521;27;20515;-79
2023/07/12 04:18:26;;;;;;;22.75;11.63;;;;;;;23.20;56.97;95600.53;5136253;27;20035;-79
2023/07/12 04:20:53;;;;;;;18.38;10.98;;;;;;;22.98;56.75;95561.25;5135013;27;20134;-79
2023/07/12 04:23:19;;;;;;;17.48;10.60;;;;;;;23.26;56.60;95595.66;5118537;27;20018;-79
2023/07/12 04:25:44;;;;;;;19.73;10.63;;;;;;;23.12;56.84;95574.38;5135424;27;20030;-79
2023/07/12 04:28:10;;;;;;;18.95;10.38;;;;;;;23.08;56.84;95566.19;5135705;27;20027;-78
2023/07/12 04:30:35;;;;;;;17.83;11.07;;;;;;;23.14;56.68;95574.06;5135823;27;20035;-78
2023/07/12 04:33:01;;;;;;;17.65;10.77;;;;;;;23.16;56.71;95574.50;5153848;27;20086;-79
2023/07/12 04:35:27;;;;;;;23.98;10.57;;;;;;;23.16;56.85;95574.50;5135849;27;20034;-79
2023/07/12 04:37:52;;;;;;;20.48;11.27;;;;;;;23.29;56.74;95592.25;5135770;27;20473;-78
2023/07/12 04:40:18;;;;;;;21.60;11.68;;;;;;;23.19;56.70;95573.81;5135118;27;20030;-79
2023/07/12 04:42:45;;;;;;;23.98;11.20;;;;;;;23.16;56.66;95567.19;5135541;27;20039;-79
2023/07/12 04:45:12;;;;;;;17.60;11.32;;;;;;;23.20;56.52;95576.16;5154067;27;20102;-78
2023/07/12 04:47:37;;;;;;;19.85;11.77;;;;;;;23.17;56.18;95567.97;5135711;27;20034;-79
2023/07/12 04:50:04;;;;;;;19.55;12.45;;;;;;;22.99;55.76;95537.69;5135172;27;20062;-79
2023/07/12 04:52:29;;;;;;;24.95;12.20;;;;;;;23.21;55.73;95571.53;5153424;27;20030;-79
2023/07/12 04:54:57;;;;;;;25.42;13.88;;;;;;;23.46;56.21;95610.91;5134812;27;20034;-79
2023/07/12 04:57:23;;;;;;;25.80;13.13;;;;;;;23.26;56.75;95590.25;5134223;27;20094;-79
2023/07/12 04:59:48;;;;;;;25.27;14.38;;;;;;;22.97;56.67;95538.03;5153127;27;20516;-79
2023/07/12 05:02:14;;;;;;;23.05;13.77;;;;;;;23.29;56.48;95574.09;5115838;28;20115;-79
2023/07/12 05:04:39;;;;;;;27.13;14.35;;;;;;;23.44;56.72;95594.22;5131364;28;20035;-79
2023/07/12 05:07:09;;;;;;;21.42;14.38;;;;;;;23.56;56.56;95609.69;5132208;27;20038;-78
2023/07/12 05:09:35;;;;;;;25.40;14.48;;;;;;;23.51;56.13;95585.53;5124285;27;20111;-79
2023/07/12 05:12:00;;;;;;;25.50;13.88;;;;;;;23.55;56.07;95591.84;5127275;28;20042;-79
2023/07/12 05:14:26;;;;;;;19.08;12.95;;;;;;;23.51;55.99;95572.78;5111826;28;20074;-79
2023/07/12 05:16:51;;;;;;;28.13;14.07;;;;;;;23.42;55.93;95574.88;5110842;27;20459;-79
2023/07/12 05:19:17;;;;;;;34.30;14.50;;;;;;;23.58;55.87;95583.81;5098377;27;20410;-79
2023/07/12 05:21:43;;;;;;;24.52;14.38;;;;;;;23.53;55.39;95567.03;5133209;27;20055;-79
2023/07/12 05:24:09;;;;;;;36.47;13.70;;;;;;;23.81;55.40;95597.56;5117854;27;20110;-79
2023/07/12 05:26:34;;;;;;;24.45;13.63;;;;;;;23.73;55.53;95574.13;5116695;27;20039;-79
2023/07/12 05:29:00;;;;;;;21.58;14.90;;;;;;;23.91;55.88;95602.47;5115907;27;20509;-79
2023/07/12 05:31:26;;;;;;;36.33;14.77;;;;;;;23.73;55.88;95576.84;5116792;27;20031;-79
2023/07/12 05:33:51;;;;;;;22.60;14.32;;;;;;;23.22;55.41;95497.38;5135893;27;20118;-79
2023/07/12 05:36:17;;;;;;;26.40;13.38;;;;;;;23.89;55.28;95590.41;5113247;27;20083;-79
2023/07/12 05:38:42;;;;;;;23.83;13.55;;;;;;;24.03;54.99;95601.63;5106053;27;20130;-78
2023/07/12 05:41:08;;;;;;;22.02;14.07;;;;;;;23.88;54.74;95570.66;5097845;27;20046;-79
2023/07/12 05:43:34;;;;;;;34.55;15.13;;;;;;;23.94;55.01;95584.75;5115517;28;20549;-77
2023/07/12 05:46:00;;;;;;;27.38;15.02;;;;;;;24.20;54.93;95604.78;5109903;27;20122;-78
2023/07/12 05:48:26;;;;;;;31.17;15.85;;;;;;;24.20;54.82;95595.88;5134576;27;20031;-78
2023/07/12 05:50:57;;;;;;;24.55;13.50;;;;;;;24.13;54.55;95574.78;5118572;27;20033;-78
2023/07/12 05:53:23;;;;;;;;;;;;;;;24.34;54.33;95606.28;5102733;27;20031;-78
2023/07/12 05:55:54;;;;;;;23.40;14.10;;;;;;;24.31;53.91;95610.50;5118204;27;20381;-78
2023/07/12 05:58:20;;;;;;;19.23;12.60;;;;;;;24.23;53.59;95582.44;5121844;27;20031;-78
2023/07/12 06:00:45;;;;;;;24.65;13.15;;;;;;;24.28;53.58;95589.50;5137417;27;20083;-78
2023/07/12 06:03:11;;;;;;;27.23;13.60;;;;;;;24.25;53.51;95576.66;5120004;27;20031;-78
2023/07/12 06:05:40;;;;;;;29.33;14.02;;;;;;;24.23;54.09;95579.72;5129500;27;20126;-78
2023/07/12 06:08:06;;;;;;;23.30;13.73;;;;;;;23.94;53.66;95547.63;5128569;27;20065;-78
2023/07/12 06:10:31;;;;;;;22.77;12.63;;;;;;;24.32;53.66;95582.25;5106790;27;20031;-78
2023/07/12 06:12:57;;;;;;;22.60;13.82;;;;;;;24.41;53.38;95593.69;5114487;27;20031;-78
2023/07/12 06:15:22;;;;;;;26.75;12.93;;;;;;;24.52;53.43;95605.56;5116838;27;20666;-78
2023/07/12 06:17:48;;;;;;;21.10;14.05;;;;;;;24.61;53.38;95619.72;5115787;27;20398;-79
2023/07/12 06:20:13;;;;;;;25.83;13.77;;;;;;;24.47;53.73;95608.56;5125980;27;20074;-79
2023/07/12 06:22:40;;;;;;;25.48;13.63;;;;;;;24.33;53.80;95577.63;5116391;27;20406;-80
2023/07/12 06:25:06;;;;;;;30.73;13.60;;;;;;;24.59;54.20;95623.94;5129365;27;20034;-79
2023/07/12 06:27:31;;;;;;;28.63;14.70;;;;;;;24.36;53.72;95566.06;5133885;27;20019;-79
2023/07/12 06:29:56;;;;;;;24.50;13.68;;;;;;;23.90;53.46;95494.47;5111886;27;20031;-79
2023/07/12 06:32:22;;;;;;;31.17;13.68;;;;;;;24.70;53.33;95605.19;5107850;27;20110;-79
2023/07/12 06:34:47;;;;;;;21.98;13.02;;;;;;;24.71;53.43;95604.84;5140575;27;20035;-79
2023/07/12 06:37:13;;;;;;;21.02;13.48;;;;;;;24.45;53.23;95548.47;5115999;27;20122;-79
2023/07/12 06:39:38;;;;;;;30.15;13.63;;;;;;;24.79;53.16;95594.94;5123782;27;20055;-79
2023/07/12 06:42:05;;;;;;;26.30;12.88;;;;;;;24.36;53.33;95533.53;5132390;27;20517;-79
2023/07/12 06:44:30;;;;;;;24.30;13.48;;;;;;;24.67;52.68;95562.50;5143880;27;20033;-79
2023/07/12 06:46:56;;;;;;;29.48;13.13;;;;;;;24.88;52.87;95587.38;5156718;27;20106;-79
2023/07/12 06:49:21;;;;;;;24.58;13.05;;;;;;;25.06;52.59;95591.31;5112997;27;20516;-80
2023/07/12 06:51:46;;;;;;;29.80;13.40;;;;;;;25.08;52.25;95583.59;5143995;27;20027;-79
2023/07/12 06:54:14;;;;;;;34.55;13.50;;;;;;;25.06;52.38;95561.44;5108211;27;20023;-80
2023/07/12 06:56:40;;;;;;;22.70;13.02;;;;;;;25.38;52.15;95600.91;5132161;27;20023;-79
2023/07/12 06:59:06;;;;;;;29.83;13.82;;;;;;;25.40;52.07;95605.19;5153784;27;20548;-80
2023/07/12 07:01:32;;;;;;;26.73;14.07;;;;;;;24.91;51.93;95527.03;5136416;27;20038;-79
2023/07/12 07:03:58;;;;;;;27.30;12.70;;;;;;;25.28;52.39;95587.09;5131150;27;20031;-79
2023/07/12 07:06:24;;;;;;;19.35;11.88;;;;;;;25.33;52.43;95570.50;5110277;27;20031;-80
2023/07/12 07:08:50;;;;;;;23.08;11.68;;;;;;;24.83;52.55;95496.22;5123074;27;20041;-79
2023/07/12 07:11:16;;;;;;;27.70;13.05;;;;;;;25.32;52.58;95590.69;5102463;27;20027;-79
2023/07/12 07:13:41;;;;;;;20.33;12.77;;;;;;;25.47;52.67;95614.25;5095467;27;20111;-79
2023/07/12 07:16:07;;;;;;;20.67;12.35;;;;;;;25.33;52.76;95597.66;5103880;28;20035;-79
2023/07/12 07:18:32;;;;;;;22.75;12.98;;;;;;;25.09;52.11;95552.59;5105398;27;20031;-79
2023/07/12 07:20:58;;;;;;;25.55;13.07;;;;;;;25.14;52.70;95594.94;5124881;27;20065;-79
2023/07/12 07:23:24;;;;;;;26.77;12.27;;;;;;;25.30;52.18;95592.97;5137608;27;20031;-79
2023/07/12 07:25:49;;;;;;;27.95;12.30;;;;;;;25.13;52.04;95561.59;5103502;28;20043;-79
2023/07/12 07:28:15;;;;;;;20.10;11.45;;;;;;;25.49;51.45;95592.16;5104986;27;20091;-79
2023/07/12 07:30:40;;;;;;;19.17;13.10;;;;;;;25.63;51.96;95620.41;5129184;27;20038;-79
2023/07/12 07:33:06;;;;;;;21.45;12.52;;;;;;;25.66;51.59;95595.25;5107615;27;20063;-80
2023/07/12 07:35:31;;;;;;;29.67;13.32;;;;;;;25.66;51.34;95591.75;5104347;27;20096;-79
2023/07/12 07:37:57;;;;;;;19.38;11.48;;;;;;;25.96;51.80;95608.19;5120648;27;20023;-79
2023/07/12 07:40:22;;;;;;;22.95;12.90;;;;;;;25.80;51.40;95564.84;5110007;28;20036;-79
2023/07/12 07:42:48;;;;;;;24.20;11.95;;;;;;;25.99;51.20;95583.03;5133442;27;20489;-79
2023/07/12 07:45:13;;;;;;;27.08;12.60;;;;;;;26.00;51.19;95577.25;5134050;27;20019;-80
2023/07/12 07:47:39;;;;;;;28.77;12.90;;;;;;;25.93;50.43;95571.69;5121312;27;20031;-79
2023/07/12 07:50:06;;;;;;;20.40;11.48;;;;;;;26.04;50.04;95582.72;5153538;27;20084;-80
2023/07/12 07:52:32;;;;;;;22.35;12.45;;;;;;;26.14;49.62;95590.28;5127358;27;20030;-79
2023/07/12 07:54:58;;;;;;;23.63;12.25;;;;;;;26.38;49.95;95608.97;5115504;27;20032;-80
2023/07/12 07:57:23;;;;;;;24.95;11.73;;;;;;;26.27;49.74;95561.78;5135130;27;20023;-80
2023/07/12 07:59:49;;;;;;;20.58;11.15;;;;;;;26.18;49.93;95563.13;5136153;27;20034;-79
2023/07/12 08:02:14;;;;;;;23.77;10.32;;;;;;;26.33;49.76;95573.13;5113474;27;20030;-82
2023/07/12 08:04:40;;;;;;;19.60;10.93;;;;;;;26.61;51.46;95605.44;5132419;27;20469;-80
2023/07/12 08:07:06;;;;;;;18.85;11.18;;;;;;;26.60;50.18;95606.59;5100276;27;20032;-80
2023/07/12 08:09:35;;;;;;;22.95;11.38;;;;;;;26.58;50.22;95579.75;5087616;28;20448;-80
2023/07/12 08:12:01;;;;;;;25.35;12.07;;;;;;;26.63;50.58;95606.63;5125153;27;20114;-81
2023/07/12 08:14:26;;;;;;;23.05;10.95;;;;;;;26.81;50.56;95612.34;5128989;27;20123;-81
2023/07/12 08:16:52;;;;;;;20.40;10.68;;;;;;;26.65;50.55;95562.75;5119430;27;20031;-81
2023/07/12 08:19:17;;;;;;;25.23;11.23;;;;;;;26.87;50.13;95592.59;5145060;27;20019;-82
2023/07/12 08:21:43;;;;;;;20.30;11.20;;;;;;;26.44;49.83;95546.91;5134503;27;20054;-83
2023/07/12 08:24:09;;;;;;;20.50;12.70;;;;;;;26.26;49.47;95530.31;5120054;27;20023;-82
2023/07/12 08:26:34;;;;;;;19.77;11.40;;;;;;;27.04;49.52;95615.03;5102949;27;20023;-82
2023/07/12 08:29:00;;;;;;;21.98;13.05;;;;;;;26.29;49.59;95483.38;5105788;27;20142;-82
2023/07/12 08:31:25;;;;;;;14.45;10.80;;;;;;;26.64;48.71;95525.81;5117555;27;20072;-80
2023/07/12 08:33:51;;;;;;;25.88;11.32;;;;;;;27.32;49.59;95609.16;5118867;27;20382;-83
2023/07/12 08:36:16;;;;;;;20.42;11.20;;;;;;;27.10;50.15;95564.53;5125668;27;20034;-80
2023/07/12 08:38:42;;;;;;;16.08;10.88;;;;;;;27.34;49.71;95579.63;5119756;27;20490;-80
2023/07/12 08:41:14;;;;;;;19.40;11.80;;;;;;;27.31;48.80;95574.94;5125455;27;20106;-80
2023/07/12 08:43:39;;;;;;;20.88;11.60;;;;;;;27.34;48.59;95588.59;5124241;27;20110;-80
2023/07/12 08:46:31;;;;;;;26.10;12.00;;;;;;;27.54;48.49;95603.63;5123555;27;20077;-80
2023/07/12 08:49:00;;;;;;;19.30;11.77;;;;;;;27.43;47.85;95599.97;5116390;27;20041;-80
2023/07/12 08:51:32;;;;;;;27.13;11.50;;;;;;;27.33;47.84;95591.66;5105481;27;20486;-80
2023/07/12 08:53:57;;;;;;;23.38;12.07;;;;;;;27.24;47.55;95568.22;5143298;27;20106;-80
2023/07/12 08:56:24;;;;;;;23.58;11.20;;;;;;;27.41;47.25;95560.63;5149478;27;20030;-80
2023/07/12 08:58:52;;;;;;;22.80;11.68;;;;;;;27.55;47.89;95605.19;5151362;27;20035;-80
2023/07/12 09:01:46;;;;;;;20.67;12.32;;;;;;;27.49;47.08;95590.31;5145201;27;20030;-80
2023/07/12 09:04:31;;;;;;;19.90;11.32;;;;;;;27.73;46.71;95597.22;5086972;28;20028;-80
2023/07/12 09:07:04;;;;;;;20.80;11.07;;;;;;;27.88;47.77;95598.94;5121730;28;20039;-80
2023/07/12 09:09:38;;;;;;;23.30;12.07;;;;;;;27.67;46.72;95571.47;5099586;28;20047;-80
2023/07/12 09:12:07;;;;;;;24.17;12.30;;;;;;;27.47;47.33;95532.69;5136687;27;20034;-80
2023/07/12 09:14:35;;;;;;;21.38;11.07;;;;;;;27.97;46.69;95583.06;5124140;28;20567;-80
2023/07/12 09:17:01;;;;;;;25.10;11.70;;;;;;;27.58;46.57;95505.59;5123065;28;20073;-80
2023/07/12 09:19:36;;;;;;;39.03;11.55;;;;;;;27.69;46.73;95511.97;5122762;27;20470;-80
2023/07/12 09:22:13;;;;;;;26.83;10.45;;;;;;;28.22;46.72;95561.53;5151917;27;20141;-80
2023/07/12 09:24:43;;;;;;;28.42;11.27;;;;;;;28.39;46.83;95565.53;5124060;28;20517;-81
2023/07/12 09:27:17;;;;;;;23.40;10.07;;;;;;;28.52;46.72;95561.38;5133152;28;20473;-81
2023/07/12 09:29:43;;;;;;;23.08;11.10;;;;;;;28.57;45.82;95550.09;5130500;28;20446;-81
2023/07/12 09:32:33;;;;;;;20.42;10.63;;;;;;;28.59;45.90;95545.03;5128299;28;20028;-81
2023/07/12 09:35:00;;;;;;;16.48;10.77;;;;;;;28.70;46.41;95550.53;5137350;27;20512;-81
2023/07/12 09:37:26;;;;;;;19.20;10.52;;;;;;;28.84;46.50;95555.34;5147660;27;20034;-80
2023/07/12 09:40:15;;;;;;;23.02;10.45;;;;;;;28.61;46.09;95517.38;5139367;27;20023;-81
2023/07/12 09:42:40;;;;;;;22.58;10.57;;;;;;;28.76;44.51;95535.44;5110260;28;20086;-81
2023/07/12 09:45:11;;;;;;;20.83;10.27;;;;;;;28.71;45.25;95514.69;5132434;28;20561;-80
2023/07/12 09:47:46;;;;;;;;;;;;;;;28.92;44.29;95546.03;5127891;27;20509;-81
2023/07/12 09:50:22;;;;;;;21.45;10.60;;;;;;;29.10;44.03;95550.41;5097547;28;19938;-80
2023/07/12 09:53:08;;;;;;;14.98;9.98;;;;;;;30.08;42.87;95539.41;5148578;27;20034;-81
2023/07/12 09:55:56;;;;;;;18.30;10.35;;;;;;;31.04;39.95;95546.34;5154584;27;20035;-83
2023/07/12 09:58:53;;;;;;;15.70;8.05;;;;;;;32.02;38.22;95538.06;5108387;28;20060;-81
2023/07/12 10:01:58;;;;;;;22.08;8.88;;;;;;;32.68;36.82;95510.50;5126643;28;20107;-81
2023/07/12 10:04:35;;;;;;;14.23;8.50;;;;;;;-143.51;100.00;62207.84;5134857;27;20529;-80
2023/07/12 10:07:10;;;;;;;15.25;8.18;;;;;;;-143.51;100.00;62207.84;5128762;27;20061;-80
2023/07/12 10:09:38;;;;;;;17.55;8.35;;;;;;;-143.51;100.00;62207.84;5127702;27;20027;-80
2023/07/12 10:12:15;;;;;;;16.38;8.82;;;;;;;-143.51;100.00;62207.84;5136769;27;20034;-80
2023/07/12 10:14:42;;;;;;;17.67;8.02;;;;;;;-143.51;100.00;62207.84;5119656;27;20039;-80
2023/07/12 10:17:24;;;;;;;17.13;7.97;;;;;;;-143.51;100.00;62207.84;5137511;27;20144;-80
2023/07/12 10:19:53;;;;;;;16.08;8.02;;;;;;;-143.51;100.00;62207.84;5141192;27;20509;-80
2023/07/12 10:22:29;;;;;;;14.60;7.65;;;;;;;-143.51;100.00;62207.84;5135399;27;20066;-80
2023/07/12 10:24:57;;;;;;;14.65;7.43;;;;;;;-143.51;100.00;62207.84;5150759;27;20052;-80
2023/07/12 10:27:27;;;;;;;20.00;7.22;;;;;;;-143.51;100.00;62207.84;5138673;27;20038;-80
2023/07/12 10:30:17;;;;;;;16.35;7.13;;;;;;;-143.51;100.00;62207.84;5138011;27;20475;-80
2023/07/12 10:32:50;;;;;;;17.52;7.47;;;;;;;-143.51;100.00;62207.84;5131618;27;20043;-80
2023/07/12 10:35:34;;;;;;;16.30;7.05;;;;;;;-143.51;100.00;62207.84;5117610;27;20413;-80
2023/07/12 10:38:04;;;;;;;13.95;6.53;;;;;;;-143.51;100.00;62207.84;5130207;27;20446;-80
2023/07/12 10:40:53;;;;;;;14.02;6.80;;;;;;;-143.51;100.00;62207.84;5135845;27;20073;-80
2023/07/12 10:43:35;;;;;;;18.13;7.05;;;;;;;-143.51;100.00;62207.84;5106877;28;20035;-80
2023/07/12 10:46:09;;;;;;;14.43;6.13;;;;;;;-143.51;100.00;62207.84;5140292;27;20031;-80
2023/07/12 10:48:37;;;;;;;13.15;6.22;;;;;;;-143.51;100.00;62207.84;5136618;27;20041;-80
2023/07/12 10:51:37;;;;;;;12.85;6.40;;;;;;;-143.51;100.00;62207.84;5115587;27;20131;-80
2023/07/12 10:54:04;;;;;;;9.93;6.40;;;;;;;-143.51;100.00;62207.84;5063161;27;20103;-80
2023/07/12 10:56:34;;;;;;;10.98;5.78;;;;;;;-143.51;100.00;62207.84;5151692;27;20050;-80
2023/07/12 10:59:02;;;;;;;16.85;6.45;;;;;;;-143.51;100.00;62207.84;5136410;27;20061;-80
2023/07/12 11:01:43;;;;;;;13.82;6.10;;;;;;;-143.51;100.00;62207.84;5155570;27;20466;-80
2023/07/12 11:04:13;;;;;;;14.20;6.68;;;;;;;-143.51;100.00;62207.84;5135106;27;20037;-80
2023/07/12 11:07:12;;;;;;;11.35;6.35;;;;;;;-143.51;100.00;62207.84;5136489;27;20469;-80
2023/07/12 11:09:50;;;;;;;12.18;5.65;;;;;;;-143.51;100.00;62207.84;5149713;27;20112;-80
2023/07/12 11:12:36;;;;;;;6.82;5.82;;;;;;;-143.51;100.00;62207.84;5151010;27;20031;-80
2023/07/12 11:15:24;;;;;;;10.48;5.50;;;;;;;-143.51;100.00;62207.84;5138862;27;20039;-80
2023/07/12 11:18:03;;;;;;;13.05;6.20;;;;;;;-143.51;100.00;62207.84;5153928;27;20448;-80
2023/07/12 11:20:35;;;;;;;12.00;5.55;;;;;;;-143.51;100.00;62207.84;5154815;27;20104;-80
2023/07/12 11:23:07;;;;;;;9.05;5.20;;;;;;;-143.51;100.00;62207.84;5120155;27;20027;-80
2023/07/12 11:25:58;;;;;;;11.52;5.63;;;;;;;-143.51;100.00;62207.84;5113544;27;20127;-80